»·PEaware :: QXE2297 KSEA-KRDM

QXE2297 :: KSEA-KRDM

FLIGHT INFORMATION

Flight Status: Arrived
Operator:
Horizon Air
More flights by this operator :: More flights under this callsign
Pilot: Adlai G. (28854)
Aircraft: DEHAVILLAND DASH 8 400
(DH8D)
More flights by this aircraft type
Origin: KSEA Seattle-Tacoma Intl
United States
Destination: KRDM Roberts
United States
More flights between these airports :: More routes between these airports
Route: +SEA7 SEA J1 BTG J159 DSD
File this flight plan on PilotEdge
Remarks:
Altitude:
(Current/Filed)
23,000ft
Speed:
(Current/Filed)
368kts
Departed: 09-Jun-20 11:02 AM
Arrived: 09-Jun-20 11:49 AM
Distance/Time
Traveled:
197nm/0:47
Distance/Time
To Go:
Arrived

Flight Plot

Page will automatically refresh every two minutes.

Flight plan parsing failed; only flown route is shown


Map Options




Map Legend


Flown Route
Filed Route
Departure Airport
Arrival Airport
Navaid (VOR, NDB)
Fix

Horizontal Profiles

Position Reports

Time Latitude Longitude Heading Altitude Ground
Speed
09-Jun-20 10:29 47.444028 -122.303673 0 440ft 0kts
09-Jun-20 10:30 47.444028 -122.303673 0 440ft 0kts
09-Jun-20 10:31 47.444028 -122.303673 0 440ft 0kts
09-Jun-20 10:32 47.444028 -122.303673 0 440ft 0kts
09-Jun-20 10:33 47.444028 -122.303673 0 440ft 0kts
09-Jun-20 10:34 47.444028 -122.303673 0 440ft 0kts
09-Jun-20 10:35 47.444028 -122.303673 0 440ft 0kts
09-Jun-20 10:36 47.444028 -122.303673 0 440ft 0kts
09-Jun-20 10:37 47.444028 -122.303673 0 440ft 0kts
09-Jun-20 10:38 47.444028 -122.303673 0 440ft 0kts
09-Jun-20 10:39 47.444028 -122.303673 0 440ft 0kts
09-Jun-20 10:40 47.444028 -122.303673 0 440ft 0kts
09-Jun-20 10:41 47.444028 -122.303673 0 440ft 0kts
09-Jun-20 10:42 47.444028 -122.303673 0 440ft 0kts
09-Jun-20 10:43 47.444028 -122.303673 0 440ft 0kts
09-Jun-20 10:44 47.444028 -122.303673 0 440ft 0kts
09-Jun-20 10:45 47.444028 -122.303673 0 440ft 0kts
09-Jun-20 10:46 47.444028 -122.303673 0 440ft 0kts
09-Jun-20 10:47 47.444028 -122.303673 0 440ft 0kts
09-Jun-20 10:48 47.443788 -122.303711 11 440ft 2kts
09-Jun-20 10:49 47.443314 -122.304160 77 440ft 2kts
09-Jun-20 10:50 47.443158 -122.305333 72 440ft 2kts
09-Jun-20 10:51 47.442837 -122.305683 0 440ft 0kts
09-Jun-20 10:52 47.442837 -122.305683 0 440ft 0kts
09-Jun-20 10:53 47.442837 -122.305683 0 440ft 0kts
09-Jun-20 10:54 47.442837 -122.305683 0 440ft 0kts
09-Jun-20 10:55 47.442838 -122.305683 0 440ft 0kts
09-Jun-20 10:56 47.445037 -122.306298 1 440ft 16kts
09-Jun-20 10:57 47.449679 -122.306270 0 440ft 22kts
09-Jun-20 10:58 47.456099 -122.306213 0 440ft 23kts
09-Jun-20 10:59 47.462230 -122.306156 0 440ft 14kts
09-Jun-20 11:00 47.463426 -122.307595 246 440ft 6kts
09-Jun-20 11:01 47.438603 -122.308641 182 1670ft 137kts
09-Jun-20 11:02 47.391569 -122.305362 177 4630ft 182kts
09-Jun-20 11:03 47.335848 -122.304158 170 7075ft 235kts
09-Jun-20 11:04 47.269234 -122.308171 195 9811ft 233kts
09-Jun-20 11:05 47.202382 -122.323885 196 11639ft 248kts
09-Jun-20 11:06 47.135882 -122.339575 196 13482ft 244kts
09-Jun-20 11:07 47.069433 -122.355452 196 15042ft 239kts
09-Jun-20 11:08 47.002780 -122.371327 196 16305ft 246kts
09-Jun-20 11:09 46.935082 -122.387316 195 17699ft 242kts
09-Jun-20 11:10 46.868218 -122.403131 196 18881ft 248kts
09-Jun-20 11:11 46.799279 -122.418802 194 20137ft 253kts
09-Jun-20 11:12 46.728379 -122.430299 192 21352ft 259kts
09-Jun-20 11:13 46.656243 -122.442172 193 22446ft 265kts
09-Jun-20 11:14 46.581127 -122.454818 193 23089ft 284kts
09-Jun-20 11:15 46.498247 -122.468736 192 23133ft 313kts
09-Jun-20 11:16 46.409310 -122.483384 192 23137ft 329kts
09-Jun-20 11:17 46.317120 -122.498363 192 23156ft 338kts
09-Jun-20 11:18 46.223142 -122.514084 192 23165ft 342kts
09-Jun-20 11:19 46.128779 -122.488858 161 23200ft 366kts
09-Jun-20 11:20 46.036020 -122.427907 161 23197ft 367kts
09-Jun-20 11:21 45.943004 -122.367431 161 23201ft 369kts
09-Jun-20 11:23 45.849165 -122.306471 161 23207ft 370kts
09-Jun-20 11:24 45.755569 -122.245953 161 23209ft 371kts
09-Jun-20 11:25 45.661710 -122.185510 161 23211ft 371kts
09-Jun-20 11:26 45.567740 -122.125231 161 23212ft 371kts
09-Jun-20 11:27 45.477256 -122.051963 152 23214ft 377kts
09-Jun-20 11:28 45.390165 -121.969869 152 23212ft 373kts
09-Jun-20 11:29 45.304377 -121.889125 152 23214ft 368kts
09-Jun-20 11:30 45.218640 -121.808674 152 21788ft 376kts
09-Jun-20 11:31 45.131154 -121.727012 152 19956ft 377kts
09-Jun-20 11:32 45.044226 -121.646315 152 18142ft 371kts
09-Jun-20 11:33 44.958226 -121.567477 152 16153ft 365kts
09-Jun-20 11:34 44.874914 -121.490685 152 14388ft 350kts
09-Jun-20 11:35 44.795510 -121.417549 152 12730ft 333kts
09-Jun-20 11:36 44.718842 -121.347528 152 11147ft 326kts
09-Jun-20 11:37 44.647037 -121.281537 152 9634ft 282kts
09-Jun-20 11:38 44.608890 -121.189671 106 8787ft 282kts
09-Jun-20 11:38 44.588645 -121.101753 117 8501ft 283kts
09-Jun-20 11:40 44.542679 -120.992071 131 8083ft 278kts
09-Jun-20 11:41 44.489565 -120.914126 144 7714ft 272kts
09-Jun-20 11:41 44.439731 -120.864507 153 7408ft 252kts
09-Jun-20 11:43 44.376533 -120.875522 225 7156ft 198kts
09-Jun-20 11:43 44.348129 -120.925539 233 6107ft 198kts
09-Jun-20 11:44 44.318667 -120.992520 238 5155ft 202kts
09-Jun-20 11:46 44.291101 -121.060542 237 4382ft 132kts
09-Jun-20 11:46 44.276584 -121.095425 239 3825ft 120kts
09-Jun-20 11:47 44.260504 -121.134814 237 3174ft 116kts
09-Jun-20 11:48 44.255370 -121.150701 301 3084ft 3kts
09-Jun-20 11:49 44.256307 -121.152868 300 3084ft 11kts
09-Jun-20 11:50 44.258348 -121.157494 336 3084ft 6kts
09-Jun-20 11:51 44.259074 -121.157101 28 3084ft 0kts
09-Jun-20 11:52 44.259074 -121.157101 28 3084ft 0kts
09-Jun-20 11:53 44.259074 -121.157101 28 3084ft 0kts
09-Jun-20 11:54 44.259074 -121.157101 28 3084ft 0kts
09-Jun-20 11:55 44.259074 -121.157101 28 3084ft 0kts
09-Jun-20 11:56 44.259074 -121.157101 28 3084ft 0kts
09-Jun-20 11:57 44.259074 -121.157101 28 3084ft 0kts
09-Jun-20 11:58 44.259074 -121.157101 28 3084ft 0kts
09-Jun-20 11:59 44.259074 -121.157101 28 3084ft 0kts
09-Jun-20 12:00 44.259074 -121.157101 28 3084ft 0kts

Navigation Log

Ident Type
Flight plan parsing failed, navigation log unavailable